Seana C — WDJ3319 — position and weather

sailwx.info

Track history (hours):
 
Tides and Currents Weather Stations Pressure Air Temp Water Temp Dewpoint Dewpoint Depression Visibility Wind Speed Wind Dir Waves Ship Positions

Seana C

Owner: Curtin Maritime Corp, long beach, CA. More information available from US FCC via Universal Licensing System and Coast Guard Vessel Documentation Center.

Last reported at 2017-Nov-18 09:35 UTC. Time now 2017-Nov-18 11:45 UTC.
Position N 38°07' W 122°18'.

Length 21 m; draft 3 m.

Type: Tug. MMSI: 367766860.

Date/timePositionNaut miles runAvg speedWind from/ knotsBaromVisibWave heightAir tempDewpointWater temp
2017-Nov-18 09:35N 38°07' W 122°18'0 2.6
2017-Nov-18 09:30N 38°07' W 122°18'1 2.8
2017-Nov-18 09:00N 38°06' W 122°16'2 1.0
2017-Nov-18 07:24N 38°07' W 122°18'0 0.3
2017-Nov-18 06:50N 38°07' W 122°18'2 4.8
2017-Nov-18 06:24N 38°06' W 122°16'2 3.8
2017-Nov-18 05:58N 38°07' W 122°17'1 0.3
2017-Nov-18 03:46N 38°07' W 122°18'0 1.1
2017-Nov-18 03:19N 38°07' W 122°17'1 4.8
2017-Nov-18 03:00N 38°06' W 122°16'2 4.1
2017-Nov-18 02:30N 38°04' W 122°15'2 3.5
2017-Nov-18 02:00N 38°03' W 122°17'1 3.0
2017-Nov-18 01:30N 38°03' W 122°19'2 3.4
2017-Nov-18 00:47N 38°02' W 122°22'1 3.0
2017-Nov-18 00:30N 38°01' W 122°23'7 6.2
2017-Nov-17 23:18N 38°07' W 122°17'1 2.2
2017-Nov-17 22:58N 38°07' W 122°18'0 0.0
2017-Nov-17 22:26N 38°07' W 122°18'0 0.0
2017-Nov-17 21:49N 38°07' W 122°18'0 0.0
2017-Nov-17 21:28N 38°07' W 122°18'1 0.6
2017-Nov-17 20:14N 38°07' W 122°17'1 0.3
2017-Nov-17 18:33N 38°07' W 122°18'1 4.9
2017-Nov-17 18:27N 38°07' W 122°17'0 0.3
2017-Nov-17 17:49N 38°07' W 122°17'1 0.2
2017-Nov-17 15:03N 38°07' W 122°18'1 3.2
2017-Nov-17 14:52N 38°07' W 122°17'2 6.0
2017-Nov-17 14:29N 38°05' W 122°15'1 2.4
2017-Nov-17 13:59N 38°04' W 122°15'4 7.0
2017-Nov-17 13:26N 38°08' W 122°17'1 0.3
2017-Nov-17 10:54N 38°07' W 122°18'1 2.6
2017-Nov-17 10:28N 38°07' W 122°17'0 0.7
2017-Nov-17 09:55N 38°07' W 122°17'1 0.7
2017-Nov-17 08:48N 38°07' W 122°18'0 0.0
2017-Nov-17 08:29N 38°07' W 122°18'0 0.0
2017-Nov-17 04:47N 38°07' W 122°18'1 0.5
2017-Nov-17 03:35N 38°07' W 122°17'1 0.4
2017-Nov-17 01:52N 38°07' W 122°18'3 3.7
2017-Nov-17 01:08N 38°05' W 122°15'1 4.6
2017-Nov-17 01:00N 38°05' W 122°15'2 4.0
2017-Nov-17 00:24N 38°03' W 122°17'2 4.3
2017-Nov-16 23:59N 38°03' W 122°20'1 1.2
2017-Nov-16 23:27N 38°03' W 122°19'4 0.7
2017-Nov-16 16:41N 38°07' W 122°17'2 0.5
2017-Nov-16 12:12N 38°05' W 122°15'1 4.0
2017-Nov-16 11:56N 38°04' W 122°15'2 3.7
2017-Nov-16 11:20N 38°03' W 122°17'2 6.0
2017-Nov-16 10:58N 38°04' W 122°15'4 7.6
2017-Nov-16 10:30N 38°07' W 122°17'0 0.0
2017-Nov-16 07:45N 38°07' W 122°17'1 0.1
2017-Nov-16 01:26N 38°07' W 122°18'2 2.7
2017-Nov-16 00:31N 38°05' W 122°15'0 3.7
2017-Nov-16 00:26N 38°05' W 122°15'2 2.6
2017-Nov-15 23:49N 38°04' W 122°16'1 3.2
2017-Nov-15 23:30N 38°03' W 122°17'2 3.1
2017-Nov-15 22:51N 38°03' W 122°20'5 1.1
2017-Nov-15 18:11N 38°07' W 122°17'1 4.9
2017-Nov-15 18:00N 38°07' W 122°16'1 0.6
2017-Nov-15 16:12N 38°07' W 122°17'1 4.4
2017-Nov-15 15:57N 38°06' W 122°16'1 1.9
2017-Nov-15 15:30N 38°07' W 122°17'1 0.3
2017-Nov-15 13:48N 38°07' W 122°18'1 1.8
2017-Nov-15 13:28N 38°07' W 122°17'3 5.7
2017-Nov-15 12:58N 38°05' W 122°15'1 1.5
2017-Nov-15 12:30N 38°04' W 122°15'4 7.7
2017-Nov-15 11:59N 38°08' W 122°17'1 0.2
2017-Nov-15 08:56N 38°07' W 122°18'0 0.0
2017-Nov-15 05:34N 38°07' W 122°18'0 1.1
2017-Nov-15 05:23N 38°07' W 122°18'1 3.2
2017-Nov-15 04:55N 38°06' W 122°16'1 0.6
2017-Nov-15 02:33N 38°07' W 122°17'0 2.4
2017-Nov-15 02:26N 38°07' W 122°17'3 6.4
2017-Nov-15 02:00N 38°05' W 122°15'0 0.2
2017-Nov-15 01:30N 38°05' W 122°15'3 1.1
2017-Nov-14 22:41N 38°07' W 122°18'1 1.4
2017-Nov-14 21:55N 38°07' W 122°17'1 1.4
2017-Nov-14 21:03N 38°07' W 122°18'0 0.1
2017-Nov-14 20:59N 38°07' W 122°18'0 0.0
2017-Nov-14 19:52N 38°07' W 122°18'0 1.4
2017-Nov-14 19:30N 38°07' W 122°17'1 2.3
2017-Nov-14 19:00N 38°06' W 122°16'2 3.1
2017-Nov-14 18:30N 38°07' W 122°18'0 0.0
2017-Nov-14 18:00N 38°07' W 122°18'0 0.1
2017-Nov-14 17:29N 38°07' W 122°18'2 3.3
2017-Nov-14 17:00N 38°06' W 122°16'0 0.2
2017-Nov-14 16:30N 38°06' W 122°16'0 0.0
2017-Nov-14 16:00N 38°06' W 122°16'0 0.8
2017-Nov-14 15:30N 38°06' W 122°16'2 4.4
2017-Nov-14 15:00N 38°04' W 122°15'3 5.4
2017-Nov-14 14:30N 38°06' W 122°16'1 1.6
2017-Nov-14 13:50N 38°07' W 122°17'0 0.0
2017-Nov-14 13:30N 38°07' W 122°17'0 0.2
2017-Nov-14 13:00N 38°07' W 122°17'0 0.1
2017-Nov-14 10:18N 38°07' W 122°18'1 3.1
2017-Nov-14 10:00N 38°07' W 122°17'0 0.9
2017-Nov-14 09:30N 38°07' W 122°17'1 0.3
2017-Nov-14 07:14N 38°07' W 122°18'1 4.6
2017-Nov-14 07:00N 38°07' W 122°17'1 0.3
2017-Nov-14 03:40N 38°07' W 122°18'1 0.9
2017-Nov-14 02:59N 38°07' W 122°17'0 0.0
2017-Nov-13 23:33N 38°07' W 122°17'2 4.8
2017-Nov-13 23:13N 38°06' W 122°16'1 4.5
2017-Nov-13 23:00N 38°05' W 122°15'3 0.1
2017-Nov-13 01:15N 38°07' W 122°17'2 5.8
2017-Nov-13 00:52N 38°05' W 122°15'2 1.9
2017-Nov-12 23:46N 38°07' W 122°17'1 0.3
2017-Nov-12 21:41N 38°07' W 122°18'1 2.8
2017-Nov-12 21:29N 38°07' W 122°17'2 3.9
2017-Nov-12 20:52N 38°05' W 122°15'1 2.9
2017-Nov-12 20:25N 38°04' W 122°16'4 1.0
2017-Nov-12 16:55N 38°07' W 122°17'0 0.1
2017-Nov-12 14:11N 38°07' W 122°18'0 0.1
2017-Nov-12 11:32N 38°07' W 122°17'0 3.7
2017-Nov-12 11:29N 38°07' W 122°17'3 6.2
2017-Nov-12 11:00N 38°05' W 122°15'3 0.9
2017-Nov-12 07:30N 38°07' W 122°17'2 3.7
2017-Nov-12 06:55N 38°05' W 122°15'1 3.0
2017-Nov-12 06:29N 38°04' W 122°15'3 4.9
2017-Nov-12 05:54N 38°03' W 122°18'3 5.3
2017-Nov-12 05:21N 38°02' W 122°22'2 5.2
2017-Nov-12 04:59N 38°01' W 122°23'2 4.5
2017-Nov-12 04:27N 38°02' W 122°21'5 8.7
2017-Nov-12 03:51N 38°04' W 122°15'4 0.8
2017-Nov-11 23:14N 38°07' W 122°17'0 0.1
2017-Nov-11 20:46N 38°07' W 122°18'0 0.0
2017-Nov-11 17:45N 38°07' W 122°18'1 0.1
2017-Nov-11 10:43N 38°07' W 122°17'2 5.1
2017-Nov-11 10:22N 38°06' W 122°16'2 4.1
2017-Nov-11 09:56N 38°04' W 122°15'1 3.4
2017-Nov-11 09:30N 38°03' W 122°17'2 3.2
2017-Nov-11 08:57N 38°03' W 122°19'1 1.1
2017-Nov-11 08:21N 38°02' W 122°20'5 1.9
2017-Nov-11 05:36N 38°07' W 122°17'2 4.6
2017-Nov-11 05:11N 38°06' W 122°16'1 4.1
2017-Nov-11 04:57N 38°05' W 122°15'1 0.4
2017-Nov-11 01:50N 38°06' W 122°16'3 5.6
2017-Nov-11 01:17N 38°03' W 122°18'4 3.2
2017-Nov-10 23:58N 38°07' W 122°17'0 0.0
2017-Nov-10 21:54N 38°07' W 122°17'3 6.5
2017-Nov-10 21:28N 38°05' W 122°15'1 2.6
2017-Nov-10 20:55N 38°04' W 122°16'4 6.3
2017-Nov-10 20:21N 38°07' W 122°17'1 0.1
2017-Nov-10 14:46N 38°07' W 122°18'3 0.3
2017-Nov-10 06:16N 38°05' W 122°15'1 4.2
2017-Nov-10 05:59N 38°04' W 122°15'1 1.8
2017-Nov-10 05:15N 38°05' W 122°15'2 0.7
2017-Nov-10 01:51N 38°07' W 122°18'3 5.2
2017-Nov-10 01:21N 38°05' W 122°15'1 3.0
2017-Nov-10 00:56N 38°04' W 122°15'4 1.8
2017-Nov-09 22:49N 38°07' W 122°18'0 0.0
2017-Nov-09 14:53N 38°07' W 122°18'1 0.3
2017-Nov-09 11:25N 38°07' W 122°17'0 0.2
2017-Nov-09 09:02N 38°07' W 122°17'1 5.8
2017-Nov-09 08:55N 38°06' W 122°16'1 0.3
2017-Nov-09 05:13N 38°07' W 122°18'1 2.3
2017-Nov-09 04:59N 38°07' W 122°17'2 4.2
2017-Nov-09 04:26N 38°05' W 122°15'3 3.1
2017-Nov-09 03:24N 38°03' W 122°18'1 1.6
2017-Nov-09 02:59N 38°03' W 122°19'4 1.3
2017-Nov-08 23:43N 38°07' W 122°17'1 0.2
2017-Nov-08 20:38N 38°07' W 122°17'1 0.3
2017-Nov-08 18:35N 38°07' W 122°18'1 4.3
2017-Nov-08 18:27N 38°07' W 122°17'3 6.1
2017-Nov-08 17:58N 38°05' W 122°15'3 4.0
2017-Nov-08 17:09N 38°07' W 122°17'0 0.0
2017-Nov-08 10:41N 38°07' W 122°18'  
Track history (hours):
 
Tides and Currents Weather Stations Pressure Air Temp Water Temp Dewpoint Dewpoint Depression Visibility Wind Speed Wind Dir Waves Ship Positions

Seana C

Owner: Curtin Maritime Corp, long beach, CA. More information available from US FCC via Universal Licensing System and Coast Guard Vessel Documentation Center.

Last reported at 2017-Nov-18 09:35 UTC. Time now 2017-Nov-18 11:45 UTC.
Position N 38°07' W 122°18'.

Length 21 m; draft 3 m.

Type: Tug. MMSI: 367766860.

Date/timePositionNaut miles runAvg speedWind from/ knotsBaromVisibWave heightAir tempDewpointWater temp
2017-Nov-18 09:35N 38°07' W 122°18'0 2.6
2017-Nov-18 09:30N 38°07' W 122°18'1 2.8
2017-Nov-18 09:00N 38°06' W 122°16'2 1.0
2017-Nov-18 07:24N 38°07' W 122°18'0 0.3
2017-Nov-18 06:50N 38°07' W 122°18'2 4.8
2017-Nov-18 06:24N 38°06' W 122°16'2 3.8
2017-Nov-18 05:58N 38°07' W 122°17'1 0.3
2017-Nov-18 03:46N 38°07' W 122°18'0 1.1
2017-Nov-18 03:19N 38°07' W 122°17'1 4.8
2017-Nov-18 03:00N 38°06' W 122°16'2 4.1
2017-Nov-18 02:30N 38°04' W 122°15'2 3.5
2017-Nov-18 02:00N 38°03' W 122°17'1 3.0
2017-Nov-18 01:30N 38°03' W 122°19'2 3.4
2017-Nov-18 00:47N 38°02' W 122°22'1 3.0
2017-Nov-18 00:30N 38°01' W 122°23'7 6.2
2017-Nov-17 23:18N 38°07' W 122°17'1 2.2
2017-Nov-17 22:58N 38°07' W 122°18'0 0.0
2017-Nov-17 22:26N 38°07' W 122°18'0 0.0
2017-Nov-17 21:49N 38°07' W 122°18'0 0.0
2017-Nov-17 21:28N 38°07' W 122°18'1 0.6
2017-Nov-17 20:14N 38°07' W 122°17'1 0.3
2017-Nov-17 18:33N 38°07' W 122°18'1 4.9
2017-Nov-17 18:27N 38°07' W 122°17'0 0.3
2017-Nov-17 17:49N 38°07' W 122°17'1 0.2
2017-Nov-17 15:03N 38°07' W 122°18'1 3.2
2017-Nov-17 14:52N 38°07' W 122°17'2 6.0
2017-Nov-17 14:29N 38°05' W 122°15'1 2.4
2017-Nov-17 13:59N 38°04' W 122°15'4 7.0
2017-Nov-17 13:26N 38°08' W 122°17'1 0.3
2017-Nov-17 10:54N 38°07' W 122°18'1 2.6
2017-Nov-17 10:28N 38°07' W 122°17'0 0.7
2017-Nov-17 09:55N 38°07' W 122°17'1 0.7
2017-Nov-17 08:48N 38°07' W 122°18'0 0.0
2017-Nov-17 08:29N 38°07' W 122°18'0 0.0
2017-Nov-17 04:47N 38°07' W 122°18'1 0.5
2017-Nov-17 03:35N 38°07' W 122°17'1 0.4
2017-Nov-17 01:52N 38°07' W 122°18'3 3.7
2017-Nov-17 01:08N 38°05' W 122°15'1 4.6
2017-Nov-17 01:00N 38°05' W 122°15'2 4.0
2017-Nov-17 00:24N 38°03' W 122°17'2 4.3
2017-Nov-16 23:59N 38°03' W 122°20'1 1.2
2017-Nov-16 23:27N 38°03' W 122°19'4 0.7
2017-Nov-16 16:41N 38°07' W 122°17'2 0.5
2017-Nov-16 12:12N 38°05' W 122°15'1 4.0
2017-Nov-16 11:56N 38°04' W 122°15'2 3.7
2017-Nov-16 11:20N 38°03' W 122°17'2 6.0
2017-Nov-16 10:58N 38°04' W 122°15'4 7.6
2017-Nov-16 10:30N 38°07' W 122°17'0 0.0
2017-Nov-16 07:45N 38°07' W 122°17'1 0.1
2017-Nov-16 01:26N 38°07' W 122°18'2 2.7
2017-Nov-16 00:31N 38°05' W 122°15'0 3.7
2017-Nov-16 00:26N 38°05' W 122°15'2 2.6
2017-Nov-15 23:49N 38°04' W 122°16'1 3.2
2017-Nov-15 23:30N 38°03' W 122°17'2 3.1
2017-Nov-15 22:51N 38°03' W 122°20'5 1.1
2017-Nov-15 18:11N 38°07' W 122°17'1 4.9
2017-Nov-15 18:00N 38°07' W 122°16'1 0.6
2017-Nov-15 16:12N 38°07' W 122°17'1 4.4
2017-Nov-15 15:57N 38°06' W 122°16'1 1.9
2017-Nov-15 15:30N 38°07' W 122°17'1 0.3
2017-Nov-15 13:48N 38°07' W 122°18'1 1.8
2017-Nov-15 13:28N 38°07' W 122°17'3 5.7
2017-Nov-15 12:58N 38°05' W 122°15'1 1.5
2017-Nov-15 12:30N 38°04' W 122°15'4 7.7
2017-Nov-15 11:59N 38°08' W 122°17'1 0.2
2017-Nov-15 08:56N 38°07' W 122°18'0 0.0
2017-Nov-15 05:34N 38°07' W 122°18'0 1.1
2017-Nov-15 05:23N 38°07' W 122°18'1 3.2
2017-Nov-15 04:55N 38°06' W 122°16'1 0.6
2017-Nov-15 02:33N 38°07' W 122°17'0 2.4
2017-Nov-15 02:26N 38°07' W 122°17'3 6.4
2017-Nov-15 02:00N 38°05' W 122°15'0 0.2
2017-Nov-15 01:30N 38°05' W 122°15'3 1.1
2017-Nov-14 22:41N 38°07' W 122°18'1 1.4
2017-Nov-14 21:55N 38°07' W 122°17'1 1.4
2017-Nov-14 21:03N 38°07' W 122°18'0 0.1
2017-Nov-14 20:59N 38°07' W 122°18'0 0.0
2017-Nov-14 19:52N 38°07' W 122°18'0 1.4
2017-Nov-14 19:30N 38°07' W 122°17'1 2.3
2017-Nov-14 19:00N 38°06' W 122°16'2 3.1
2017-Nov-14 18:30N 38°07' W 122°18'0 0.0
2017-Nov-14 18:00N 38°07' W 122°18'0 0.1
2017-Nov-14 17:29N 38°07' W 122°18'2 3.3
2017-Nov-14 17:00N 38°06' W 122°16'0 0.2
2017-Nov-14 16:30N 38°06' W 122°16'0 0.0
2017-Nov-14 16:00N 38°06' W 122°16'0 0.8
2017-Nov-14 15:30N 38°06' W 122°16'2 4.4
2017-Nov-14 15:00N 38°04' W 122°15'3 5.4
2017-Nov-14 14:30N 38°06' W 122°16'1 1.6
2017-Nov-14 13:50N 38°07' W 122°17'0 0.0
2017-Nov-14 13:30N 38°07' W 122°17'0 0.2
2017-Nov-14 13:00N 38°07' W 122°17'0 0.1
2017-Nov-14 10:18N 38°07' W 122°18'1 3.1
2017-Nov-14 10:00N 38°07' W 122°17'0 0.9
2017-Nov-14 09:30N 38°07' W 122°17'1 0.3
2017-Nov-14 07:14N 38°07' W 122°18'1 4.6
2017-Nov-14 07:00N 38°07' W 122°17'1 0.3
2017-Nov-14 03:40N 38°07' W 122°18'1 0.9
2017-Nov-14 02:59N 38°07' W 122°17'0 0.0
2017-Nov-13 23:33N 38°07' W 122°17'2 4.8
2017-Nov-13 23:13N 38°06' W 122°16'1 4.5
2017-Nov-13 23:00N 38°05' W 122°15'3 0.1
2017-Nov-13 01:15N 38°07' W 122°17'2 5.8
2017-Nov-13 00:52N 38°05' W 122°15'2 1.9
2017-Nov-12 23:46N 38°07' W 122°17'1 0.3
2017-Nov-12 21:41N 38°07' W 122°18'1 2.8
2017-Nov-12 21:29N 38°07' W 122°17'2 3.9
2017-Nov-12 20:52N 38°05' W 122°15'1 2.9
2017-Nov-12 20:25N 38°04' W 122°16'4 1.0
2017-Nov-12 16:55N 38°07' W 122°17'0 0.1
2017-Nov-12 14:11N 38°07' W 122°18'0 0.1
2017-Nov-12 11:32N 38°07' W 122°17'0 3.7
2017-Nov-12 11:29N 38°07' W 122°17'3 6.2
2017-Nov-12 11:00N 38°05' W 122°15'3 0.9
2017-Nov-12 07:30N 38°07' W 122°17'2 3.7
2017-Nov-12 06:55N 38°05' W 122°15'1 3.0
2017-Nov-12 06:29N 38°04' W 122°15'3 4.9
2017-Nov-12 05:54N 38°03' W 122°18'3 5.3
2017-Nov-12 05:21N 38°02' W 122°22'2 5.2
2017-Nov-12 04:59N 38°01' W 122°23'2 4.5
2017-Nov-12 04:27N 38°02' W 122°21'5 8.7
2017-Nov-12 03:51N 38°04' W 122°15'4 0.8
2017-Nov-11 23:14N 38°07' W 122°17'0 0.1
2017-Nov-11 20:46N 38°07' W 122°18'0 0.0
2017-Nov-11 17:45N 38°07' W 122°18'1 0.1
2017-Nov-11 10:43N 38°07' W 122°17'2 5.1
2017-Nov-11 10:22N 38°06' W 122°16'2 4.1
2017-Nov-11 09:56N 38°04' W 122°15'1 3.4
2017-Nov-11 09:30N 38°03' W 122°17'2 3.2
2017-Nov-11 08:57N 38°03' W 122°19'1 1.1
2017-Nov-11 08:21N 38°02' W 122°20'5 1.9
2017-Nov-11 05:36N 38°07' W 122°17'2 4.6
2017-Nov-11 05:11N 38°06' W 122°16'1 4.1
2017-Nov-11 04:57N 38°05' W 122°15'1 0.4
2017-Nov-11 01:50N 38°06' W 122°16'3 5.6
2017-Nov-11 01:17N 38°03' W 122°18'4 3.2
2017-Nov-10 23:58N 38°07' W 122°17'0 0.0
2017-Nov-10 21:54N 38°07' W 122°17'3 6.5
2017-Nov-10 21:28N 38°05' W 122°15'1 2.6
2017-Nov-10 20:55N 38°04' W 122°16'4 6.3
2017-Nov-10 20:21N 38°07' W 122°17'1 0.1
2017-Nov-10 14:46N 38°07' W 122°18'3 0.3
2017-Nov-10 06:16N 38°05' W 122°15'1 4.2
2017-Nov-10 05:59N 38°04' W 122°15'1 1.8
2017-Nov-10 05:15N 38°05' W 122°15'2 0.7
2017-Nov-10 01:51N 38°07' W 122°18'3 5.2
2017-Nov-10 01:21N 38°05' W 122°15'1 3.0
2017-Nov-10 00:56N 38°04' W 122°15'4 1.8
2017-Nov-09 22:49N 38°07' W 122°18'0 0.0
2017-Nov-09 14:53N 38°07' W 122°18'1 0.3
2017-Nov-09 11:25N 38°07' W 122°17'0 0.2
2017-Nov-09 09:02N 38°07' W 122°17'1 5.8
2017-Nov-09 08:55N 38°06' W 122°16'1 0.3
2017-Nov-09 05:13N 38°07' W 122°18'1 2.3
2017-Nov-09 04:59N 38°07' W 122°17'2 4.2
2017-Nov-09 04:26N 38°05' W 122°15'3 3.1
2017-Nov-09 03:24N 38°03' W 122°18'1 1.6
2017-Nov-09 02:59N 38°03' W 122°19'4 1.3
2017-Nov-08 23:43N 38°07' W 122°17'1 0.2
2017-Nov-08 20:38N 38°07' W 122°17'1 0.3
2017-Nov-08 18:35N 38°07' W 122°18'1 4.3
2017-Nov-08 18:27N 38°07' W 122°17'3 6.1
2017-Nov-08 17:58N 38°05' W 122°15'3 4.0
2017-Nov-08 17:09N 38°07' W 122°17'0 0.0
2017-Nov-08 10:41N 38°07' W 122°18'  

Dump ship's entire track history